Terminal Aerodrome Forecast
Issued by NWS Sioux Falls, SD

Home | Current Version | Previous Version | Graphics & Text | Print | Product List | Glossary On
Versions: 1 2 3 4 5 6 7 8 9 10 11 12 13
000
FTUS43 KFSD 231120
TAFFSD
TAF
KFSD 231120Z 2312/2412 31009KT P6SM SCT090
     FM231500 32015G23KT P6SM BKN030
     FM231700 32017G25KT P6SM BKN035
     FM232200 32017G24KT P6SM SCT060
     FM240100 31011KT P6SM FEW060
     FM240500 31005KT P6SM FEW070=

USA.gov is the U.S. government's official web portal to all federal, state and local government web resources and services.